Time;durP1;ratioP1;P1;durP2;ratioP2;P2;SDS_P1;SDS_P2;PMS_P1;PMS_P2;Temp;Humidity;BMP_temperature;BMP_pressure;BME280_temperature;BME280_humidity;BME280_pressure;Samples;Min_cycle;Max_cycle;Signal;HPM_P1;HPM_P2
2022/10/14 00:00:09;;;;;;;509.60;40.75;;;;;;;;;;5001768;28;92346;-90
2022/10/14 00:02:36;;;;;;;473.92;41.30;;;;;;;;;;5004888;28;93000;-90
2022/10/14 00:05:03;;;;;;;717.70;51.78;;;;;;;;;;4999268;28;94060;-89
2022/10/14 00:07:29;;;;;;;456.75;47.65;;;;;;;;;;4994351;28;93041;-90
2022/10/14 00:09:55;;;;;;;515.92;46.92;;;;;;;;;;4996352;28;93981;-90
2022/10/14 00:12:22;;;;;;;496.02;51.67;;;;;;;;;;4998150;28;91681;-89
2022/10/14 00:14:48;;;;;;;500.50;42.75;;;;;;;;;;4994825;28;92377;-87
2022/10/14 00:17:14;;;;;;;507.77;47.42;;;;;;;;;;4994783;28;93926;-88
2022/10/14 00:19:42;;;;;;;408.95;42.10;;;;;;;;;;4994505;28;94818;-89
2022/10/14 00:22:08;;;;;;;496.90;43.85;;;;;;;;;;4998554;28;96375;-91
2022/10/14 00:24:34;;;;;;;445.35;40.97;;;;;;;;;;4976506;28;94093;-90
2022/10/14 00:27:01;;;;;;;484.20;45.42;;;;;;;;;;4976175;28;92458;-88
2022/10/14 00:29:27;;;;;;;605.72;48.17;;;;;;;;;;4978073;28;93996;-89
2022/10/14 00:31:53;;;;;;;445.38;45.20;;;;;;;;;;4987341;28;92525;-89
2022/10/14 00:34:20;;;;;;;599.65;48.08;;;;;;;;;;5014579;28;93008;-88
2022/10/14 00:36:46;;;;;;;437.13;43.25;;;;;;;;;;5013729;28;92515;-88
2022/10/14 00:39:17;;;;;;;386.65;40.20;;;;;;;;;;5013942;28;92527;-88
2022/10/14 00:41:44;;;;;;;412.05;39.90;;;;;;;;;;5016758;28;93568;-89
2022/10/14 00:44:13;;;;;;;254.02;34.08;;;;;;;;;;5015715;28;95647;-89
2022/10/14 00:46:40;;;;;;;365.77;35.92;;;;;;;;;;5017760;28;92462;-88
2022/10/14 00:49:13;;;;;;;425.15;40.92;;;;;;;;;;5008701;28;92825;-90
2022/10/14 00:51:41;;;;;;;551.22;45.72;;;;;;;;;;5000296;28;94205;-90
2022/10/14 00:54:08;;;;;;;442.40;39.10;;;;;;;;;;4995708;28;95541;-89
2022/10/14 00:56:35;;;;;;;555.35;39.08;;;;;;;;;;4995690;28;94055;-89
2022/10/14 00:59:05;;;;;;;506.80;39.53;;;;;;;;;;4997792;28;93791;-90
2022/10/14 01:01:31;;;;;;;415.45;36.80;;;;;;;;;;5003567;28;92969;-90
2022/10/14 01:03:58;;;;;;;347.00;35.53;;;;;;;;;;4997944;28;94329;-88
2022/10/14 01:06:43;;;;;;;359.20;40.15;;;;;;;;;;5006642;28;92668;-88
2022/10/14 01:09:09;;;;;;;396.40;35.78;;;;;;;;;;4994913;28;94753;-88
2022/10/14 01:11:39;;;;;;;333.45;29.73;;;;;;;;;;4994661;28;96135;-87
2022/10/14 01:14:25;;;;;;;236.40;29.77;;;;;;;;;;4997086;28;92604;-88
2022/10/14 01:16:57;;;;;;;468.40;42.40;;;;;;;;;;4995839;28;93001;-87
2022/10/14 01:19:47;;;;;;;347.17;36.42;;;;;;;;;;4995923;28;92452;-88
2022/10/14 01:22:18;;;;;;;302.30;36.08;;;;;;;;;;4976764;28;92522;-88
2022/10/14 01:24:47;;;;;;;231.93;35.40;;;;;;;;;;4994771;28;93941;-88
2022/10/14 01:27:32;;;;;;;234.85;33.50;;;;;;;;;;4996135;28;91884;-88
2022/10/14 01:30:19;;;;;;;225.13;32.15;;;;;;;;;;4994804;28;95987;-88
2022/10/14 01:32:49;;;;;;;179.55;30.90;;;;;;;;;;4994527;28;95817;-88
2022/10/14 01:35:24;;;;;;;178.95;31.98;;;;;;;;;;4994738;28;94717;-88
2022/10/14 01:37:57;;;;;;;202.43;35.45;;;;;;;;;;4998066;28;96449;-88
2022/10/14 01:40:44;;;;;;;242.48;30.45;;;;;;;;;;4995522;28;92847;-88
2022/10/14 01:43:12;;;;;;;264.95;33.25;;;;;;;;;;4995346;28;96649;-88
2022/10/14 01:45:41;;;;;;;261.90;32.28;;;;;;;;;;4994722;28;94321;-88
2022/10/14 01:48:11;;;;;;;499.63;42.30;;;;;;;;;;4994007;28;92919;-88
2022/10/14 01:50:38;;;;;;;401.25;42.03;;;;;;;;;;4994755;28;95622;-87
2022/10/14 01:53:07;;;;;;;347.30;38.35;;;;;;;;;;4995367;28;91582;-87
2022/10/14 01:55:36;;;;;;;242.25;35.33;;;;;;;;;;4980650;28;93197;-87
2022/10/14 01:58:04;;;;;;;353.27;39.17;;;;;;;;;;4993270;28;93072;-87
2022/10/14 02:00:31;;;;;;;412.52;41.67;;;;;;;;;;4995702;28;98322;-89
2022/10/14 02:03:00;;;;;;;340.88;38.67;;;;;;;;;;4993822;28;97614;-89
2022/10/14 02:05:29;;;;;;;425.48;43.85;;;;;;;;;;4995321;28;93155;-88
2022/10/14 02:08:15;;;;;;;302.13;39.63;;;;;;;;;;4997012;28;92428;-89
2022/10/14 02:10:50;;;;;;;320.17;42.05;;;;;;;;;;4998049;28;95044;-89
2022/10/14 02:13:24;;;;;;;348.40;40.33;;;;;;;;;;4998222;28;94054;-89
2022/10/14 02:16:00;;;;;;;215.27;37.45;;;;;;;;;;5016661;28;92874;-90
2022/10/14 02:18:50;;;;;;;185.88;37.97;;;;;;;;;;5015454;28;94860;-90
2022/10/14 02:21:25;;;;;;;300.17;39.55;;;;;;;;;;5017142;28;93002;-90
2022/10/14 02:24:00;;;;;;;230.60;40.28;;;;;;;;;;5020423;28;92400;-89
2022/10/14 02:26:27;;;;;;;209.98;36.83;;;;;;;;;;5015926;28;95435;-89
2022/10/14 02:28:54;;;;;;;278.67;42.45;;;;;;;;;;5016215;28;92467;-90
2022/10/14 02:31:21;;;;;;;288.05;42.35;;;;;;;;;;5015007;28;93997;-89
2022/10/14 02:33:50;;;;;;;223.45;39.03;;;;;;;;;;5014687;28;94049;-90
2022/10/14 02:36:18;;;;;;;199.65;38.05;;;;;;;;;;4997327;28;92527;-90
2022/10/14 02:38:46;;;;;;;205.70;41.58;;;;;;;;;;4992490;28;93284;-89
2022/10/14 02:41:13;;;;;;;290.05;44.05;;;;;;;;;;4993392;28;95430;-89
2022/10/14 02:43:40;;;;;;;227.65;39.42;;;;;;;;;;4997920;28;91735;-89
2022/10/14 02:46:06;;;;;;;194.13;40.38;;;;;;;;;;4993298;28;96229;-89
2022/10/14 02:48:33;;;;;;;203.00;41.75;;;;;;;;;;4994080;28;93384;-88
2022/10/14 02:50:59;;;;;;;146.48;38.45;;;;;;;;;;4991914;28;96145;-89
2022/10/14 02:53:26;;;;;;;263.05;45.97;;;;;;;;;;4994611;28;95960;-90
2022/10/14 02:55:52;;;;;;;259.60;46.08;;;;;;;;;;4994768;28;92415;-88
2022/10/14 02:58:18;;;;;;;295.20;45.92;;;;;;;;;;4993399;28;92980;-87
2022/10/14 03:00:48;;;;;;;249.48;45.15;;;;;;;;;;4994366;28;94160;-90
2022/10/14 03:03:15;;;;;;;255.60;41.25;;;;;;;;;;4993463;28;92397;-88
2022/10/14 03:05:41;;;;;;;252.32;45.97;;;;;;;;;;4996279;28;93130;-89
2022/10/14 03:08:11;;;;;;;338.08;49.88;;;;;;;;;;4993793;28;91672;-88
2022/10/14 03:10:38;;;;;;;271.25;44.83;;;;;;;;;;4995048;28;93219;-88
2022/10/14 03:13:08;;;;;;;308.63;48.35;;;;;;;;;;4992201;28;95804;-88
2022/10/14 03:15:39;;;;;;;275.00;45.25;;;;;;;;;;4991280;28;94916;-88
2022/10/14 03:18:08;;;;;;;250.18;48.92;;;;;;;;;;4993106;28;94284;-89
2022/10/14 03:20:42;;;;;;;280.58;46.92;;;;;;;;;;4992483;28;94874;-89
2022/10/14 03:23:11;;;;;;;505.42;60.65;;;;;;;;;;4993630;28;92448;-87
2022/10/14 03:25:38;;;;;;;299.65;52.13;;;;;;;;;;4992999;28;94075;-88
2022/10/14 03:28:13;;;;;;;225.60;46.78;;;;;;;;;;4994752;28;95878;-88
2022/10/14 03:30:49;;;;;;;319.48;51.72;;;;;;;;;;4993012;28;95677;-88
2022/10/14 03:33:30;;;;;;;193.10;42.75;;;;;;;;;;4993571;28;93520;-89
2022/10/14 03:36:11;;;;;;;244.13;48.90;;;;;;;;;;4993174;28;92482;-89
2022/10/14 03:38:44;;;;;;;454.17;60.70;;;;;;;;;;4993553;28;95155;-90
2022/10/14 03:41:20;;;;;;;345.58;53.05;;;;;;;;;;4990861;28;97906;-89
2022/10/14 03:43:47;;;;;;;231.25;53.00;;;;;;;;;;4992889;28;92838;-89
2022/10/14 03:46:13;;;;;;;365.45;57.38;;;;;;;;;;4993446;28;95797;-89
2022/10/14 03:48:40;;;;;;;357.17;59.38;;;;;;;;;;4991675;28;95750;-88
2022/10/14 03:51:07;;;;;;;274.02;51.08;;;;;;;;;;4997819;28;92496;-88
2022/10/14 03:53:34;;;;;;;293.90;54.67;;;;;;;;;;4995924;28;95212;-89
2022/10/14 03:56:01;;;;;;;349.08;59.67;;;;;;;;;;4994049;28;92425;-90
2022/10/14 03:58:29;;;;;;;327.33;60.03;;;;;;;;;;4993478;28;94236;-90
2022/10/14 04:01:00;;;;;;;274.42;50.65;;;;;;;;;;4992433;28;96157;-88
2022/10/14 04:03:35;;;;;;;428.90;68.85;;;;;;;;;;4992875;28;92813;-87
2022/10/14 04:06:02;;;;;;;334.52;62.13;;;;;;;;;;4991736;28;94855;-88
2022/10/14 04:08:29;;;;;;;277.40;57.30;;;;;;;;;;4991738;28;95131;-88
2022/10/14 04:11:09;;;;;;;209.57;52.50;;;;;;;;;;4992747;28;92309;-89
2022/10/14 04:13:38;;;;;;;364.88;63.47;;;;;;;;;;4995983;28;95277;-88
2022/10/14 04:16:06;;;;;;;347.08;62.25;;;;;;;;;;4991866;28;92666;-89
2022/10/14 04:18:36;;;;;;;257.60;59.13;;;;;;;;;;4995834;28;95035;-88
2022/10/14 04:21:05;;;;;;;318.38;60.63;;;;;;;;;;4996391;28;96172;-89
2022/10/14 04:23:31;;;;;;;275.20;58.97;;;;;;;;;;5013751;28;91878;-89
2022/10/14 04:26:07;;;;;;;224.88;56.33;;;;;;;;;;4997455;28;93320;-89
2022/10/14 04:28:35;;;;;;;269.27;59.50;;;;;;;;;;4996564;28;94162;-89
2022/10/14 04:31:09;;;;;;;260.35;57.75;;;;;;;;;;5005033;28;95078;-89
2022/10/14 04:33:55;;;;;;;212.63;55.88;;;;;;;;;;4998977;28;97744;-89
2022/10/14 04:36:28;;;;;;;276.70;57.72;;;;;;;;;;4997451;28;92891;-91
2022/10/14 04:38:57;;;;;;;269.13;58.83;;;;;;;;;;4999890;28;96033;-89
2022/10/14 04:41:23;;;;;;;320.25;65.03;;;;;;;;;;4997669;28;94681;-90
2022/10/14 04:43:52;;;;;;;275.30;60.63;;;;;;;;;;4996338;28;92563;-89
2022/10/14 04:46:27;;;;;;;284.17;59.67;;;;;;;;;;5002918;28;95220;-89
2022/10/14 04:48:54;;;;;;;369.05;65.50;;;;;;;;;;5016542;28;94500;-89
2022/10/14 04:51:24;;;;;;;248.68;60.72;;;;;;;;;;5017015;28;92466;-90
2022/10/14 04:54:17;;;;;;;327.42;62.30;;;;;;;;;;5011209;28;92792;-90
2022/10/14 04:56:50;;;;;;;204.07;57.35;;;;;;;;;;4996420;28;98356;-89
2022/10/14 04:59:17;;;;;;;240.35;59.25;;;;;;;;;;4993716;28;98145;-90
2022/10/14 05:01:56;;;;;;;408.85;67.38;;;;;;;;;;4996613;28;95875;-89
2022/10/14 05:04:31;;;;;;;341.88;66.57;;;;;;;;;;5008746;28;92423;-90
2022/10/14 05:06:58;;;;;;;294.75;62.50;;;;;;;;;;5019607;28;94230;-90
2022/10/14 05:09:25;;;;;;;315.02;65.35;;;;;;;;;;5022164;28;92321;-90
2022/10/14 05:11:51;;;;;;;424.15;70.57;;;;;;;;;;5016442;28;92441;-89
2022/10/14 05:14:21;;;;;;;352.30;67.47;;;;;;;;;;5020451;28;95420;-90
2022/10/14 05:16:56;;;;;;;383.00;69.05;;;;;;;;;;5008282;28;94092;-90
2022/10/14 05:19:27;;;;;;;330.02;64.97;;;;;;;;;;5004655;28;92861;-90
2022/10/14 05:21:53;;;;;;;375.02;69.68;;;;;;;;;;4997326;28;98479;-90
2022/10/14 05:24:25;;;;;;;353.13;70.57;;;;;;;;;;4997031;28;92447;-89
2022/10/14 05:26:52;;;;;;;393.58;71.95;;;;;;;;;;4993487;28;95617;-88
2022/10/14 05:29:19;;;;;;;293.83;64.93;;;;;;;;;;4995072;28;93911;-88
2022/10/14 05:31:48;;;;;;;276.83;64.68;;;;;;;;;;4994074;28;93001;-89
2022/10/14 05:34:23;;;;;;;310.00;65.25;;;;;;;;;;4994472;28;92522;-89
2022/10/14 05:36:50;;;;;;;441.40;77.65;;;;;;;;;;4994386;28;95583;-88
2022/10/14 05:39:18;;;;;;;287.90;67.03;;;;;;;;;;4996377;28;92267;-88
2022/10/14 05:41:44;;;;;;;368.70;71.63;;;;;;;;;;4998796;28;92406;-89
2022/10/14 05:44:13;;;;;;;385.27;73.75;;;;;;;;;;4994933;28;92596;-88
2022/10/14 05:46:41;;;;;;;287.55;69.82;;;;;;;;;;4992070;28;95366;-88
2022/10/14 05:49:07;;;;;;;310.48;72.72;;;;;;;;;;4994364;28;95081;-88
2022/10/14 05:51:36;;;;;;;303.80;70.15;;;;;;;;;;4994907;28;92500;-88
2022/10/14 05:54:10;;;;;;;249.00;66.30;;;;;;;;;;4995324;28;95902;-89
2022/10/14 05:56:39;;;;;;;212.93;60.00;;;;;;;;;;4996004;28;94621;-88
2022/10/14 05:59:08;;;;;;;317.83;71.25;;;;;;;;;;4995100;28;92493;-88
2022/10/14 06:01:35;;;;;;;289.27;69.90;;;;;;;;;;4997063;28;93942;-89
2022/10/14 06:04:02;;;;;;;281.77;70.13;;;;;;;;;;4999058;28;95151;-88
2022/10/14 06:06:28;;;;;;;254.07;67.45;;;;;;;;;;4996765;28;94704;-89
2022/10/14 06:08:55;;;;;;;272.40;67.57;;;;;;;;;;4998658;28;94934;-88
2022/10/14 06:11:21;;;;;;;216.35;62.15;;;;;;;;;;4993466;28;94838;-89
2022/10/14 06:13:48;;;;;;;220.43;62.65;;;;;;;;;;5011220;28;98159;-90
2022/10/14 06:16:15;;;;;;;194.88;58.40;;;;;;;;;;4991788;28;96068;-91
2022/10/14 06:18:42;;;;;;;206.13;58.90;;;;;;;;;;4995032;28;92672;-89
2022/10/14 06:21:10;;;;;;;203.95;58.15;;;;;;;;;;4997271;28;96347;-90
2022/10/14 06:23:37;;;;;;;198.45;56.50;;;;;;;;;;4996138;28;94188;-91
2022/10/14 06:26:04;;;;;;;202.38;57.42;;;;;;;;;;4997928;28;92343;-93
2022/10/14 06:28:31;;;;;;;167.00;53.85;;;;;;;;;;4993711;28;93340;-87
2022/10/14 06:30:57;;;;;;;187.77;54.58;;;;;;;;;;4992748;28;92871;-86
2022/10/14 06:33:23;;;;;;;184.05;53.45;;;;;;;;;;4992662;28;95621;-86
2022/10/14 06:35:50;;;;;;;128.98;43.47;;;;;;;;;;4990104;28;96827;-87
2022/10/14 06:38:16;;;;;;;126.95;45.15;;;;;;;;;;4991728;28;93390;-90
2022/10/14 06:40:43;;;;;;;144.48;47.83;;;;;;;;;;4990439;28;94160;-85
2022/10/14 06:43:09;;;;;;;145.88;47.83;;;;;;;;;;4993562;28;94232;-85
2022/10/14 06:45:36;;;;;;;114.82;43.25;;;;;;;;;;4994333;28;92838;-85
2022/10/14 06:48:03;;;;;;;127.30;45.88;;;;;;;;;;4993346;28;94234;-85
2022/10/14 06:50:30;;;;;;;125.00;44.25;;;;;;;;;;4992592;28;92451;-87
2022/10/14 06:52:56;;;;;;;127.40;44.15;;;;;;;;;;4993858;28;94245;-86
2022/10/14 06:55:22;;;;;;;117.55;42.58;;;;;;;;;;4992744;28;94166;-86
2022/10/14 06:57:49;;;;;;;105.18;40.85;;;;;;;;;;4990147;28;93469;-79
2022/10/14 07:00:15;;;;;;;104.72;39.17;;;;;;;;;;4991240;28;95754;-85
2022/10/14 07:02:42;;;;;;;102.85;39.60;;;;;;;;;;4989582;28;94123;-82
2022/10/14 07:05:09;;;;;;;105.63;39.13;;;;;;;;;;4989874;28;93951;-88
2022/10/14 07:07:35;;;;;;;105.28;40.38;;;;;;;;;;4997532;28;93116;-87
2022/10/14 07:10:02;;;;;;;85.57;36.13;;;;;;;;;;4992858;28;92468;-86
2022/10/14 07:12:28;;;;;;;94.70;37.55;;;;;;;;;;4991719;28;93990;-86
2022/10/14 07:14:54;;;;;;;91.15;37.35;;;;;;;;;;4991451;28;94259;-86
2022/10/14 07:17:20;;;;;;;83.07;34.13;;;;;;;;;;4989085;28;91785;-87
2022/10/14 07:19:47;;;;;;;81.93;33.03;;;;;;;;;;4990246;28;92589;-88
2022/10/14 07:22:16;;;;;;;81.25;34.83;;;;;;;;;;4992875;28;94782;-85
2022/10/14 07:24:42;;;;;;;81.35;34.72;;;;;;;;;;4990577;28;96596;-89
2022/10/14 07:27:09;;;;;;;67.35;30.30;;;;;;;;;;4993198;28;97750;-91
2022/10/14 07:29:36;;;;;;;79.97;32.72;;;;;;;;;;4996372;28;94119;-83
2022/10/14 07:32:02;;;;;;;67.60;31.23;;;;;;;;;;4984732;28;94571;-83
2022/10/14 07:34:29;;;;;;;55.03;28.48;;;;;;;;;;4992245;28;94244;-90
2022/10/14 07:36:55;;;;;;;56.67;27.60;;;;;;;;;;4991508;28;92528;-87
2022/10/14 07:39:22;;;;;;;64.00;31.55;;;;;;;;;;4989003;28;94475;-89
2022/10/14 07:41:48;;;;;;;56.60;29.67;;;;;;;;;;4993503;28;93298;-88
2022/10/14 07:44:16;;;;;;;53.10;27.15;;;;;;;;;;4985498;28;92352;-88
2022/10/14 07:46:43;;;;;;;48.83;25.88;;;;;;;;;;4994544;28;94083;-76
2022/10/14 07:49:11;;;;;;;48.70;26.67;;;;;;;;;;5004866;28;95798;-87
2022/10/14 07:51:42;;;;;;;63.60;29.58;;;;;;;;;;4997336;28;93206;-87
2022/10/14 07:54:11;;;;;;;52.60;27.83;;;;;;;;;;4994800;28;94146;-83
2022/10/14 07:56:38;;;;;;;51.28;26.73;;;;;;;;;;4990573;28;92526;-85
2022/10/14 07:59:04;;;;;;;49.65;26.77;;;;;;;;;;4991744;28;94017;-84
2022/10/14 08:01:31;;;;;;;53.95;28.08;;;;;;;;;;4992231;28;93435;-86
2022/10/14 08:03:58;;;;;;;55.20;28.15;;;;;;;;;;4994024;28;92496;-81
2022/10/14 08:06:25;;;;;;;52.03;27.00;;;;;;;;;;4993937;28;94023;-86
2022/10/14 08:08:51;;;;;;;71.55;32.05;;;;;;;;;;4993063;28;93920;-85
2022/10/14 08:11:22;;;;;;;52.28;28.45;;;;;;;;;;4992956;28;92484;-83
2022/10/14 08:13:49;;;;;;;50.88;28.33;;;;;;;;;;4994649;28;94855;-82
2022/10/14 08:16:23;;;;;;;50.90;26.27;;;;;;;;;;4992352;28;92783;-83
2022/10/14 08:18:49;;;;;;;49.42;28.88;;;;;;;;;;4991097;28;94146;-84
2022/10/14 08:21:17;;;;;;;57.97;30.48;;;;;;;;;;4988479;28;93418;-83
2022/10/14 08:23:44;;;;;;;32.17;22.38;;;;;;;;;;4991902;28;92430;-84
2022/10/14 08:26:32;;;;;;;55.63;27.50;;;;;;;;;;4991305;28;94061;-84
2022/10/14 08:29:00;;;;;;;59.53;29.48;;;;;;;;;;4990536;28;94562;-82
2022/10/14 08:31:26;;;;;;;47.65;27.23;;;;;;;;;;4989463;28;91780;-83
2022/10/14 08:33:53;;;;;;;58.38;31.13;;;;;;;;;;4988246;28;94969;-82
2022/10/14 08:36:19;;;;;;;63.47;33.10;;;;;;;;;;4994043;28;94346;-82
2022/10/14 08:38:46;;;;;;;59.65;32.28;;;;;;;;;;4988869;28;96375;-84
2022/10/14 08:41:12;;;;;;;59.03;31.95;;;;;;;;;;4989717;28;94591;-83
2022/10/14 08:43:38;;;;;;;51.35;28.13;;;;;;;;;;4994154;28;92937;-83
2022/10/14 08:46:10;;;;;;;63.88;32.70;;;;;;;;;;4990920;28;93916;-82
2022/10/14 08:48:37;;;;;;;68.22;33.97;;;;;;;;;;4983996;28;94194;-82
2022/10/14 08:51:11;;;;;;;91.50;38.20;;;;;;;;;;4986877;28;93595;-85
2022/10/14 08:53:46;;;;;;;56.70;31.70;;;;;;;;;;4985276;28;94073;-81
2022/10/14 08:56:13;;;;;;;71.72;36.60;;;;;;;;;;4996787;28;93919;-82
2022/10/14 08:58:46;;;;;;;73.57;36.30;;;;;;;;;;4993300;28;92788;-85
2022/10/14 09:01:17;;;;;;;72.93;37.72;;;;;;;;;;4976471;28;95542;-85
2022/10/14 09:03:44;;;;;;;57.28;33.83;;;;;;;;;;4992512;28;95056;-83
2022/10/14 09:06:14;;;;;;;78.20;37.60;;;;;;;;;;4997402;28;96702;-87
2022/10/14 09:08:45;;;;;;;50.05;30.90;;;;;;;;;;4998464;28;94419;-84
2022/10/14 09:11:14;;;;;;;61.85;35.17;;;;;;;;;;4997209;28;92589;-85
2022/10/14 09:13:41;;;;;;;51.35;29.77;;;;;;;;;;4998412;28;93808;-83
2022/10/14 09:16:14;;;;;;;33.33;24.95;;;;;;;;;;4992100;28;94162;-83
2022/10/14 09:18:43;;;;;;;45.35;27.05;;;;;;;;;;4995424;28;92486;-83
2022/10/14 09:21:19;;;;;;;44.10;27.30;;;;;;;;;;4999695;28;93397;-84
2022/10/14 09:24:12;;;;;;;39.40;27.10;;;;;;;;;;4997428;28;92563;-88
2022/10/14 09:26:38;;;;;;;;;;;;;;;;;;4988763;28;94070;-81
2022/10/14 09:29:19;;;;;;;29.67;21.92;;;;;;;;;;4995348;28;124539;-84
2022/10/14 09:31:46;;;;;;;30.25;21.17;;;;;;;;;;4999363;28;92517;-84
2022/10/14 09:34:17;;;;;;;33.58;23.55;;;;;;;;;;4993064;28;94062;-85
2022/10/14 09:36:47;;;;;;;29.23;21.70;;;;;;;;;;4985305;28;94393;-83
2022/10/14 09:39:15;;;;;;;24.63;20.75;;;;;;;;;;4996663;28;92888;-85
2022/10/14 09:41:42;;;;;;;25.27;20.52;;;;;;;;;;4998277;28;94124;-79
2022/10/14 09:44:24;;;;;;;23.15;19.70;;;;;;;;;;4992919;28;92892;-82
2022/10/14 09:46:51;;;;;;;22.77;19.30;;;;;;;;;;4992520;28;93892;-82
2022/10/14 09:49:22;;;;;;;26.83;20.63;;;;;;;;;;4992969;28;93353;-86
2022/10/14 09:51:48;;;;;;;27.77;21.33;;;;;;;;;;4992268;28;92540;-82
2022/10/14 09:54:21;;;;;;;24.27;17.70;;;;;;;;;;4993866;28;94839;-82
2022/10/14 09:56:48;;;;;;;23.08;18.40;;;;;;;;;;4995301;28;94185;-84
2022/10/14 09:59:17;;;;;;;28.80;20.17;;;;;;;;;;4992539;28;92440;-84
2022/10/14 10:01:51;;;;;;;23.92;20.33;;;;;;;;;;4995265;28;94416;-83
2022/10/14 10:04:24;;;;;;;28.95;21.55;;;;;;;;;;4998846;28;93816;-84
2022/10/14 10:06:51;;;;;;;31.30;21.65;;;;;;;;;;4991264;28;93217;-83
2022/10/14 10:09:18;;;;;;;30.88;21.92;;;;;;;;;;4996831;28;94157;-84
2022/10/14 10:11:45;;;;;;;25.92;19.77;;;;;;;;;;5003676;28;91847;-83
2022/10/14 10:14:28;;;;;;;29.02;21.70;;;;;;;;;;4991554;28;93155;-83
2022/10/14 10:17:07;;;;;;;37.60;23.02;;;;;;;;;;4992909;28;94054;-84
2022/10/14 10:19:34;;;;;;;24.30;20.17;;;;;;;;;;4992217;28;95514;-83
2022/10/14 10:22:21;;;;;;;26.35;21.92;;;;;;;;;;4984452;28;96380;-82
2022/10/14 10:24:49;;;;;;;27.92;20.02;;;;;;;;;;4985420;28;94553;-80
2022/10/14 10:27:25;;;;;;;25.70;21.17;;;;;;;;;;4996088;28;92512;-81
2022/10/14 10:29:54;;;;;;;22.73;19.25;;;;;;;;;;4985506;28;94371;-80
2022/10/14 10:32:30;;;;;;;28.70;18.27;;;;;;;;;;4984326;28;92467;-81
2022/10/14 10:35:03;;;;;;;20.63;18.48;;;;;;;;;;4987945;28;94524;-81
2022/10/14 10:37:50;;;;;;;20.45;16.35;;;;;;;;;;4992397;28;93879;-81
2022/10/14 10:40:23;;;;;;;19.40;17.45;;;;;;;;;;4973249;28;93702;-81
2022/10/14 10:43:18;;;;;;;20.58;16.02;;;;;;;;;;4990499;28;94002;-81
2022/10/14 10:45:59;;;;;;;17.98;16.08;;;;;;;;;;4987189;28;96879;-81
2022/10/14 10:48:34;;;;;;;17.13;15.38;;;;;;;;;;4988225;28;94172;-81
2022/10/14 10:51:04;;;;;;;19.30;16.58;;;;;;;;;;4986618;28;94056;-81
2022/10/14 10:53:30;;;;;;;14.35;13.05;;;;;;;;;;4990304;28;92494;-81
2022/10/14 10:56:10;;;;;;;14.35;13.05;;;;;;;;;;4993841;28;92970;-81
2022/10/14 10:58:39;;;;;;;15.10;13.57;;;;;;;;;;4994051;28;93550;-80
2022/10/14 11:01:25;;;;;;;17.05;14.43;;;;;;;;;;4983302;28;92519;-81
2022/10/14 11:03:57;;;;;;;13.85;12.15;;;;;;;;;;4986345;28;93847;-80
2022/10/14 11:12:46;;;;;;;15.32;12.55;;;;;;;;;;4993931;28;95016;-81
2022/10/14 11:15:33;;;;;;;11.32;10.38;;;;;;;;;;4992002;28;92522;-80
2022/10/14 11:18:07;;;;;;;12.10;10.98;;;;;;;;;;4993820;28;92455;-81
2022/10/14 11:20:35;;;;;;;12.05;10.93;;;;;;;;;;4994388;28;94922;-81
2022/10/14 11:23:26;;;;;;;12.95;10.90;;;;;;;;;;4994160;28;93176;-81
2022/10/14 11:25:55;;;;;;;10.63;9.73;;;;;;;;;;4972671;28;94119;-82
2022/10/14 11:28:41;;;;;;;13.00;10.57;;;;;;;;;;4994964;28;94070;-81
2022/10/14 11:31:34;;;;;;;11.65;10.02;;;;;;;;;;4994512;28;91756;-80
2022/10/14 11:34:18;;;;;;;11.82;10.73;;;;;;;;;;4992476;28;92501;-80
2022/10/14 11:36:59;;;;;;;10.98;9.93;;;;;;;;;;4994328;28;94287;-80
2022/10/14 11:39:37;;;;;;;10.52;9.70;;;;;;;;;;4991368;28;95204;-81
2022/10/14 11:42:29;;;;;;;10.35;9.30;;;;;;;;;;4984398;28;93558;-82
2022/10/14 11:45:21;;;;;;;11.27;10.23;;;;;;;;;;4975253;28;92445;-83
2022/10/14 11:47:58;;;;;;;11.75;10.10;;;;;;;;;;4994345;28;93702;-82
2022/10/14 11:50:29;;;;;;;11.85;10.80;;;;;;;;;;4993949;28;94265;-83
2022/10/14 11:53:00;;;;;;;11.37;10.37;;;;;;;;;;4988966;28;92500;-83
2022/10/14 11:55:31;;;;;;;10.23;9.43;;;;;;;;;;4993839;28;93463;-85
2022/10/14 11:58:17;;;;;;;11.38;10.48;;;;;;;;;;4994137;28;93834;-86
2022/10/14 12:00:46;;;;;;;10.60;9.70;;;;;;;;;;4996656;28;92746;-83
2022/10/14 12:03:12;;;;;;;12.13;10.88;;;;;;;;;;4992657;28;94278;-85
2022/10/14 12:05:45;;;;;;;9.70;8.90;;;;;;;;;;4992262;28;94857;-85
2022/10/14 12:08:20;;;;;;;10.25;9.43;;;;;;;;;;4994543;28;96269;-84
2022/10/14 12:10:50;;;;;;;9.77;8.93;;;;;;;;;;4984913;28;95282;-85
2022/10/14 12:13:19;;;;;;;8.63;7.63;;;;;;;;;;4991912;28;92261;-85
2022/10/14 12:15:50;;;;;;;8.52;7.70;;;;;;;;;;4991187;28;94138;-84
2022/10/14 12:18:18;;;;;;;8.55;7.95;;;;;;;;;;4993521;28;94220;-84
2022/10/14 12:21:11;;;;;;;7.50;6.93;;;;;;;;;;4992985;28;92517;-84
2022/10/14 12:23:40;;;;;;;10.80;7.88;;;;;;;;;;4996281;28;93951;-86
2022/10/14 12:26:19;;;;;;;7.88;7.28;;;;;;;;;;4996438;28;92438;-81
2022/10/14 12:28:45;;;;;;;8.45;7.75;;;;;;;;;;4994566;28;94178;-91
2022/10/14 12:31:30;;;;;;;8.00;7.40;;;;;;;;;;4995513;28;96479;-85
2022/10/14 12:34:16;;;;;;;7.80;7.30;;;;;;;;;;4990575;28;92603;-84
2022/10/14 12:36:42;;;;;;;;;;;;;;;;;;4994498;28;92849;-84
2022/10/14 12:39:17;;;;;;;7.38;6.97;;;;;;;;;;4997127;28;124430;-87
2022/10/14 12:41:54;;;;;;;;;;;;;;;;;;4994836;28;92511;-81
2022/10/14 12:44:22;;;;;;;6.97;6.57;;;;;;;;;;4993003;28;123562;-81
2022/10/14 12:46:50;;;;;;;7.30;6.80;;;;;;;;;;4995820;28;93988;-81
2022/10/14 12:49:27;;;;;;;8.38;7.68;;;;;;;;;;4996532;28;93235;-79
2022/10/14 12:51:54;;;;;;;7.47;6.95;;;;;;;;;;4983754;28;94868;-80
2022/10/14 12:54:21;;;;;;;8.73;8.02;;;;;;;;;;4995444;28;93067;-80
2022/10/14 12:56:55;;;;;;;10.18;9.13;;;;;;;;;;4995051;28;94655;-80
2022/10/14 12:59:35;;;;;;;10.17;9.17;;;;;;;;;;4993037;28;94017;-80
2022/10/14 13:02:22;;;;;;;8.95;8.23;;;;;;;;;;4992242;28;93144;-82
2022/10/14 13:04:50;;;;;;;8.02;7.20;;;;;;;;;;4988594;28;92983;-81
2022/10/14 13:07:16;;;;;;;7.95;7.15;;;;;;;;;;4995744;28;93932;-80
2022/10/14 13:10:22;;;;;;;8.95;8.25;;;;;;;;;;4998753;28;92423;-81
2022/10/14 13:12:48;;;;;;;7.30;6.90;;;;;;;;;;4995511;28;94500;-80
2022/10/14 13:15:53;;;;;;;9.15;8.35;;;;;;;;;;4995739;28;91702;-82
2022/10/14 13:18:43;;;;;;;9.80;8.90;;;;;;;;;;4971852;28;92625;-81
2022/10/14 13:21:19;;;;;;;8.27;7.63;;;;;;;;;;4969509;28;94767;-82
2022/10/14 13:23:48;;;;;;;10.13;9.23;;;;;;;;;;4974085;28;95267;-82
2022/10/14 13:26:33;;;;;;;8.20;7.65;;;;;;;;;;4991046;28;96680;-83
2022/10/14 13:28:59;;;;;;;9.90;8.95;;;;;;;;;;4976340;28;94151;-82
2022/10/14 13:32:00;;;;;;;9.35;8.52;;;;;;;;;;4994322;28;94037;-80
2022/10/14 13:34:33;;;;;;;8.98;8.20;;;;;;;;;;4990449;28;93218;-82
2022/10/14 13:37:18;;;;;;;8.18;7.57;;;;;;;;;;4992847;28;92494;-80
2022/10/14 13:39:44;;;;;;;7.95;7.32;;;;;;;;;;4976412;28;93729;-82
2022/10/14 13:42:18;;;;;;;9.90;9.02;;;;;;;;;;4980207;28;92579;-86
2022/10/14 13:44:44;;;;;;;11.85;8.50;;;;;;;;;;4992375;28;93997;-81
2022/10/14 13:47:19;;;;;;;9.20;8.07;;;;;;;;;;4996478;28;93854;-83
2022/10/14 13:49:48;;;;;;;10.63;8.43;;;;;;;;;;4984814;28;97670;-82
2022/10/14 13:52:17;;;;;;;11.20;10.10;;;;;;;;;;4994310;28;92502;-73
2022/10/14 13:54:43;;;;;;;11.25;10.13;;;;;;;;;;4998489;28;93440;-84
2022/10/14 13:57:09;;;;;;;9.57;8.55;;;;;;;;;;4995059;28;92679;-83
2022/10/14 13:59:56;;;;;;;9.30;8.32;;;;;;;;;;4995710;28;93719;-86
2022/10/14 14:02:43;;;;;;;13.43;12.10;;;;;;;;;;4979443;28;93128;-87
2022/10/14 14:05:18;;;;;;;10.75;9.70;;;;;;;;;;4991620;28;92388;-84
2022/10/14 14:07:45;;;;;;;9.93;8.90;;;;;;;;;;4997755;28;93214;-85
2022/10/14 14:10:31;;;;;;;7.65;6.22;;;;;;;;;;4997713;28;93487;-85
2022/10/14 14:13:03;;;;;;;5.82;5.43;;;;;;;;;;4995334;28;94765;-85
2022/10/14 14:15:29;;;;;;;9.82;5.25;;;;;;;;;;4994576;28;95604;-89
2022/10/14 14:17:55;;;;;;;5.55;5.15;;;;;;;;;;4997952;28;93710;-85
2022/10/14 14:20:24;;;;;;;6.90;5.18;;;;;;;;;;4990583;28;93978;-86
2022/10/14 14:22:51;;;;;;;5.18;4.82;;;;;;;;;;4993160;28;93330;-83
2022/10/14 14:25:18;;;;;;;5.63;5.20;;;;;;;;;;5003534;28;92665;-88
2022/10/14 14:28:12;;;;;;;5.32;4.90;;;;;;;;;;4992671;28;95048;-83
2022/10/14 14:30:40;;;;;;;6.13;5.60;;;;;;;;;;4995921;28;94231;-83
2022/10/14 14:33:10;;;;;;;6.57;6.13;;;;;;;;;;4994681;28;91760;-82
2022/10/14 14:35:36;;;;;;;8.70;6.22;;;;;;;;;;4980666;28;93398;-83
2022/10/14 14:38:03;;;;;;;6.93;6.35;;;;;;;;;;4987708;28;94205;-86
2022/10/14 14:40:29;;;;;;;7.45;6.78;;;;;;;;;;4990869;28;94905;-84
2022/10/14 14:42:59;;;;;;;8.80;8.07;;;;;;;;;;4993155;28;94140;-85
2022/10/14 14:45:29;;;;;;;8.65;7.95;;;;;;;;;;4986035;28;93111;-86